Alamogordo/Holloman AFB, New Mexico
Current Conditions -  °F | °C
As of 12:58 PM on Thursday 29 Jan 2015 (Local Time) from KHMN Reporting Station
Broken Clouds Broken Clouds  
Wind Chill: 58°   Ceiling: 12000
Heat Index: 58°   Visibility: 10mi
Dew Point: 37°   Wind: 6mph
Humidity: 45%   Direction: 170°S
Pressure: 30.27"   Gusts: NA
Location:  32.85°N, 106.1°W
Report Text: KHMN 291958Z AUTO 17005KT 10SM BKN120 15/03 A3027 RMK AO2 SLP219 T01470030 $
Loading
Personal Weather Stations






























Interactive Weather Map New forecast layout! Learn more

10-Day Weather Forecast

Advertisements
Track Severe Weather on mobile